Time;durP1;ratioP1;P1;durP2;ratioP2;P2;SDS_P1;SDS_P2;PMS_P1;PMS_P2;Temp;Humidity;BMP_temperature;BMP_pressure;BME280_temperature;BME280_humidity;BME280_pressure;Samples;Min_cycle;Max_cycle;Signal;HPM_P1;HPM_P2
2024/02/21 00:00:48;;;;;;;17.38;5.80;;;9.60;99.90;;;;;;5045350;28;20091;-64
2024/02/21 00:03:13;;;;;;;17.55;5.82;;;9.60;99.90;;;;;;5059081;28;20029;-64
2024/02/21 00:05:39;;;;;;;12.98;5.28;;;9.60;99.90;;;;;;5054179;28;20039;-65
2024/02/21 00:08:05;;;;;;;15.13;5.40;;;9.60;99.90;;;;;;5049900;28;20044;-64
2024/02/21 00:10:34;;;;;;;19.00;5.47;;;9.60;99.90;;;;;;5049621;28;20381;-64
2024/02/21 00:13:00;;;;;;;12.70;5.15;;;9.50;99.90;;;;;;5050492;28;20102;-64
2024/02/21 00:15:26;;;;;;;15.75;5.60;;;9.60;99.90;;;;;;5053593;28;20041;-64
2024/02/21 00:17:52;;;;;;;14.52;5.32;;;9.60;99.90;;;;;;5050854;28;20045;-64
2024/02/21 00:20:18;;;;;;;14.68;5.35;;;9.50;99.90;;;;;;5053123;28;20021;-65
2024/02/21 00:22:44;;;;;;;17.17;5.65;;;9.60;99.90;;;;;;5052268;28;20048;-64
2024/02/21 00:25:10;;;;;;;15.93;5.90;;;9.60;99.90;;;;;;5053055;28;20152;-65
2024/02/21 00:27:36;;;;;;;14.32;5.07;;;9.60;99.90;;;;;;5050599;28;20127;-65
2024/02/21 00:30:02;;;;;;;17.60;5.65;;;9.60;99.90;;;;;;5052846;28;20045;-65
2024/02/21 00:32:28;;;;;;;13.95;5.25;;;9.60;99.90;;;;;;5053074;28;20048;-64
2024/02/21 00:34:53;;;;;;;14.88;5.18;;;9.60;99.90;;;;;;5051264;28;20041;-65
2024/02/21 00:37:19;;;;;;;13.98;4.80;;;9.60;99.90;;;;;;5049099;28;20734;-64
2024/02/21 00:39:45;;;;;;;19.17;5.05;;;9.60;99.90;;;;;;5033460;28;20048;-64
2024/02/21 00:42:10;;;;;;;16.33;5.07;;;9.50;99.90;;;;;;5052937;28;20424;-64
2024/02/21 00:44:36;;;;;;;15.32;5.38;;;9.50;99.90;;;;;;5050795;28;20408;-66
2024/02/21 00:47:02;;;;;;;19.77;5.22;;;9.50;99.90;;;;;;5051914;28;20045;-64
2024/02/21 00:49:27;;;;;;;19.48;5.75;;;9.50;99.90;;;;;;5052720;28;20041;-64
2024/02/21 00:51:53;;;;;;;16.30;5.20;;;9.40;99.90;;;;;;5028646;28;20401;-64
2024/02/21 00:54:18;;;;;;;11.63;4.82;;;9.50;99.90;;;;;;5048343;28;20385;-64
2024/02/21 00:56:44;;;;;;;12.27;4.93;;;9.50;99.90;;;;;;5044500;28;20098;-67
2024/02/21 00:59:10;;;;;;;14.07;5.20;;;9.40;99.90;;;;;;5049559;28;20036;-64
2024/02/21 01:01:35;;;;;;;11.48;4.70;;;9.40;99.90;;;;;;5054299;28;20032;-65
2024/02/21 01:04:01;;;;;;;16.95;4.35;;;9.40;99.90;;;;;;5046541;28;20071;-65
2024/02/21 01:06:27;;;;;;;18.55;5.13;;;9.40;99.90;;;;;;5048591;28;20430;-65
2024/02/21 01:08:52;;;;;;;18.65;5.18;;;9.30;99.90;;;;;;5046176;28;20036;-64
2024/02/21 01:11:18;;;;;;;18.95;4.35;;;9.30;99.90;;;;;;5043395;28;20045;-64
2024/02/21 01:13:44;;;;;;;20.40;5.07;;;9.30;99.90;;;;;;5047713;28;20037;-64
2024/02/21 01:16:10;;;;;;;14.15;5.00;;;9.30;99.90;;;;;;5049183;28;20033;-64
2024/02/21 01:18:39;;;;;;;23.90;5.38;;;9.30;99.90;;;;;;5051153;28;20033;-65
2024/02/21 01:21:08;;;;;;;19.48;5.50;;;9.30;99.90;;;;;;5052100;28;20134;-66
2024/02/21 01:23:37;;;;;;;18.50;5.60;;;9.30;99.90;;;;;;5051884;28;20496;-65
2024/02/21 01:26:03;;;;;;;14.20;4.88;;;9.30;99.90;;;;;;5051738;28;20055;-65
2024/02/21 01:28:30;;;;;;;17.13;5.18;;;9.30;99.90;;;;;;5051976;28;20128;-66
2024/02/21 01:30:56;;;;;;;23.52;5.85;;;9.30;99.90;;;;;;5050523;28;20076;-65
2024/02/21 01:33:22;;;;;;;17.10;5.85;;;9.30;99.90;;;;;;5053468;28;20102;-65
2024/02/21 01:35:47;;;;;;;19.73;5.53;;;9.30;99.90;;;;;;5063351;28;20062;-67
2024/02/21 01:38:13;;;;;;;22.27;5.68;;;9.30;99.90;;;;;;5052381;28;20527;-65
2024/02/21 01:40:39;;;;;;;23.48;6.47;;;9.30;99.90;;;;;;5059917;28;20083;-64
2024/02/21 01:43:16;;;;;;;16.05;5.80;;;9.20;99.90;;;;;;5048849;28;20124;-65
2024/02/21 01:45:41;;;;;;;27.30;6.78;;;9.20;99.90;;;;;;5050583;28;20033;-65
2024/02/21 01:48:07;;;;;;;23.92;6.60;;;9.30;99.90;;;;;;5049676;28;20098;-65
2024/02/21 01:50:33;;;;;;;20.63;7.00;;;9.30;99.90;;;;;;5044690;28;20456;-65
2024/02/21 01:52:59;;;;;;;23.48;6.13;;;9.30;99.90;;;;;;5051756;28;20109;-64
2024/02/21 01:55:25;;;;;;;20.90;6.53;;;9.30;99.90;;;;;;5045115;28;20037;-64
2024/02/21 01:57:51;;;;;;;28.25;6.72;;;9.30;99.90;;;;;;5050738;28;20407;-64
2024/02/21 02:00:18;;;;;;;17.40;5.85;;;9.30;99.90;;;;;;5062475;28;20108;-65
2024/02/21 02:02:45;;;;;;;23.65;6.15;;;9.30;99.90;;;;;;5050814;28;20841;-65
2024/02/21 02:05:12;;;;;;;28.52;6.63;;;9.30;99.90;;;;;;5049687;28;20041;-65
2024/02/21 02:07:37;;;;;;;27.88;6.38;;;9.20;99.90;;;;;;5053172;28;20071;-66
2024/02/21 02:10:03;;;;;;;25.83;7.32;;;9.30;99.90;;;;;;5050833;28;20068;-65
2024/02/21 02:12:29;;;;;;;19.48;6.35;;;9.20;99.90;;;;;;5051609;28;20522;-65
2024/02/21 02:15:04;;;;;;;21.92;6.88;;;9.20;99.90;;;;;;5052147;28;20126;-65
2024/02/21 02:17:30;;;;;;;22.88;6.65;;;9.20;99.90;;;;;;5049558;28;20132;-65
2024/02/21 02:19:56;;;;;;;26.30;7.18;;;9.20;99.90;;;;;;5060049;28;20029;-66
2024/02/21 02:22:25;;;;;;;28.08;7.40;;;9.20;99.90;;;;;;5047321;28;20041;-66
2024/02/21 02:24:51;;;;;;;23.17;7.78;;;9.10;99.90;;;;;;5042560;28;20435;-65
2024/02/21 02:27:17;;;;;;;24.80;7.85;;;9.10;99.90;;;;;;5044182;28;20069;-66
2024/02/21 02:29:42;;;;;;;30.65;8.27;;;9.10;99.90;;;;;;5053638;28;20084;-66
2024/02/21 02:32:08;;;;;;;27.48;7.90;;;9.00;99.90;;;;;;5049721;28;20079;-66
2024/02/21 02:34:34;;;;;;;27.77;8.38;;;9.00;99.90;;;;;;5050202;28;20049;-66
2024/02/21 02:36:59;;;;;;;24.98;7.72;;;9.00;99.90;;;;;;5054667;28;20060;-66
2024/02/21 02:39:25;;;;;;;25.55;8.68;;;9.00;99.90;;;;;;5044381;28;20040;-66
2024/02/21 02:41:51;;;;;;;34.67;8.73;;;9.00;99.90;;;;;;5047911;28;20512;-66
2024/02/21 02:44:16;;;;;;;29.23;8.68;;;8.90;99.90;;;;;;5052200;28;20044;-66
2024/02/21 02:46:42;;;;;;;27.20;8.68;;;8.90;99.90;;;;;;5049244;28;20041;-66
2024/02/21 02:49:08;;;;;;;30.90;8.75;;;8.90;99.90;;;;;;5046556;28;20041;-66
2024/02/21 02:51:34;;;;;;;32.10;9.48;;;8.90;99.90;;;;;;5043409;28;20044;-66
2024/02/21 02:54:00;;;;;;;28.98;8.23;;;8.90;99.90;;;;;;5057786;28;20032;-66
2024/02/21 02:56:25;;;;;;;28.83;9.15;;;8.90;99.90;;;;;;5043701;28;20068;-66
2024/02/21 02:58:51;;;;;;;28.70;8.55;;;8.90;99.90;;;;;;5050016;28;20033;-66
2024/02/21 03:01:16;;;;;;;29.60;8.88;;;8.90;99.90;;;;;;5047752;28;20040;-67
2024/02/21 03:03:42;;;;;;;26.50;9.15;;;8.90;99.90;;;;;;5050478;28;20037;-66
2024/02/21 03:06:08;;;;;;;37.55;9.20;;;8.90;99.90;;;;;;5048723;28;20129;-66
2024/02/21 03:08:34;;;;;;;27.20;8.77;;;8.90;99.90;;;;;;5049137;28;20049;-67
2024/02/21 03:10:59;;;;;;;29.00;8.13;;;8.80;99.90;;;;;;5050160;28;20049;-67
2024/02/21 03:13:26;;;;;;;37.75;8.95;;;8.90;99.90;;;;;;5049633;28;20098;-66
2024/02/21 03:15:51;;;;;;;34.45;8.15;;;8.90;99.90;;;;;;5052093;28;20396;-67
2024/02/21 03:18:17;;;;;;;22.27;8.10;;;8.90;99.90;;;;;;5062307;28;20048;-66
2024/02/21 03:20:42;;;;;;;37.53;9.23;;;8.80;99.90;;;;;;5049988;28;20103;-66
2024/02/21 03:23:08;;;;;;;29.10;8.52;;;8.80;99.90;;;;;;5049835;28;20041;-66
2024/02/21 03:25:34;;;;;;;27.20;8.23;;;8.80;99.90;;;;;;5058279;28;20033;-67
2024/02/21 03:27:59;;;;;;;28.10;7.93;;;8.90;99.90;;;;;;5049718;28;20046;-67
2024/02/21 03:30:25;;;;;;;28.75;8.20;;;8.80;99.90;;;;;;5052954;28;20138;-66
2024/02/21 03:32:51;;;;;;;30.55;8.90;;;8.80;99.90;;;;;;5054233;28;20416;-67
2024/02/21 03:35:16;;;;;;;35.22;8.80;;;8.80;99.90;;;;;;5058293;28;20056;-66
2024/02/21 03:37:44;;;;;;;28.75;8.48;;;8.90;99.90;;;;;;5054040;28;20029;-66
2024/02/21 03:40:10;;;;;;;30.42;7.85;;;8.80;99.90;;;;;;5053686;28;20041;-66
2024/02/21 03:42:37;;;;;;;32.38;8.23;;;8.90;99.90;;;;;;5052824;28;20052;-66
2024/02/21 03:45:03;;;;;;;28.80;8.02;;;8.90;99.90;;;;;;5050451;28;20056;-67
2024/02/21 03:47:29;;;;;;;31.95;9.25;;;8.90;99.90;;;;;;5051798;28;20057;-66
2024/02/21 03:49:54;;;;;;;37.60;8.65;;;8.90;99.90;;;;;;5054196;28;20029;-67
2024/02/21 03:52:20;;;;;;;28.73;8.48;;;8.90;99.90;;;;;;5055948;28;20091;-66
2024/02/21 03:54:46;;;;;;;30.70;8.65;;;8.90;99.90;;;;;;5053594;28;20029;-67
2024/02/21 03:57:11;;;;;;;40.58;9.60;;;8.90;99.90;;;;;;5063120;28;20094;-66
2024/02/21 03:59:39;;;;;;;32.25;8.30;;;8.90;99.90;;;;;;5057958;28;20036;-65
2024/02/21 04:02:08;;;;;;;30.50;8.63;;;8.90;99.90;;;;;;5065702;28;20040;-64
2024/02/21 04:04:34;;;;;;;35.17;8.70;;;8.90;99.90;;;;;;5055412;28;20068;-70
2024/02/21 04:07:00;;;;;;;30.25;8.75;;;8.90;99.90;;;;;;5055726;28;20116;-68
2024/02/21 04:09:25;;;;;;;33.95;8.90;;;8.90;99.90;;;;;;5052821;28;20119;-65
2024/02/21 04:11:51;;;;;;;26.42;8.15;;;8.90;99.90;;;;;;5044425;28;20048;-64
2024/02/21 04:14:17;;;;;;;33.60;9.68;;;8.90;99.90;;;;;;5053236;28;20403;-64
2024/02/21 04:16:42;;;;;;;33.83;8.65;;;8.90;99.90;;;;;;5054145;28;20029;-64
2024/02/21 04:19:08;;;;;;;29.73;8.55;;;8.90;99.90;;;;;;5059466;28;20076;-68
2024/02/21 04:21:34;;;;;;;28.17;8.40;;;8.90;99.90;;;;;;5055016;28;20102;-64
2024/02/21 04:24:01;;;;;;;31.02;8.77;;;8.90;99.90;;;;;;5053301;28;20119;-64
2024/02/21 04:26:27;;;;;;;29.85;8.55;;;8.60;99.90;;;;;;5052482;28;20041;-65
2024/02/21 04:28:53;;;;;;;30.15;8.63;;;8.90;99.90;;;;;;5052606;28;20037;-67
2024/02/21 04:31:18;;;;;;;33.35;9.65;;;8.90;99.90;;;;;;5060591;28;20454;-69
2024/02/21 04:33:44;;;;;;;32.88;9.13;;;8.90;99.90;;;;;;5054936;28;20044;-64
2024/02/21 04:36:09;;;;;;;28.58;8.65;;;8.90;99.90;;;;;;5052816;28;20074;-65
2024/02/21 04:38:35;;;;;;;35.80;9.45;;;8.90;99.90;;;;;;5051179;28;20041;-65
2024/02/21 04:41:01;;;;;;;34.17;7.90;;;8.90;99.90;;;;;;5052360;28;20489;-67
2024/02/21 04:43:26;;;;;;;23.92;7.80;;;8.90;99.90;;;;;;5054394;28;20045;-66
2024/02/21 04:45:53;;;;;;;31.83;8.93;;;8.90;99.90;;;;;;5051089;28;20050;-64
2024/02/21 04:48:20;;;;;;;33.45;9.35;;;8.90;99.90;;;;;;5059453;28;20049;-64
2024/02/21 04:50:46;;;;;;;37.53;9.00;;;8.90;99.90;;;;;;5055637;28;20495;-64
2024/02/21 04:53:12;;;;;;;32.53;8.02;;;9.00;99.90;;;;;;5052049;28;20121;-65
2024/02/21 04:55:38;;;;;;;35.17;8.95;;;9.00;99.90;;;;;;5046401;28;20123;-65
2024/02/21 04:58:03;;;;;;;30.77;7.80;;;9.00;99.90;;;;;;5055495;28;20133;-70
2024/02/21 05:00:29;;;;;;;32.70;7.97;;;9.00;99.90;;;;;;5048819;28;20087;-64
2024/02/21 05:02:55;;;;;;;29.80;8.52;;;9.00;99.90;;;;;;5050883;28;20110;-64
2024/02/21 05:05:20;;;;;;;32.38;7.55;;;9.00;99.90;;;;;;5052502;28;20029;-64
2024/02/21 05:07:46;;;;;;;31.48;8.57;;;9.00;99.90;;;;;;5054336;28;20557;-66
2024/02/21 05:10:12;;;;;;;30.30;8.38;;;9.00;99.90;;;;;;5062608;28;20045;-67
2024/02/21 05:12:37;;;;;;;33.92;8.57;;;9.00;99.90;;;;;;5060764;28;20075;-64
2024/02/21 05:15:03;;;;;;;34.33;7.80;;;9.00;99.90;;;;;;5052088;28;20087;-64
2024/02/21 05:17:29;;;;;;;30.27;8.82;;;9.00;99.90;;;;;;5055984;28;20049;-64
2024/02/21 05:19:55;;;;;;;29.02;7.95;;;9.00;99.90;;;;;;5059803;28;20048;-64
2024/02/21 05:22:20;;;;;;;35.53;8.18;;;9.00;99.90;;;;;;5049068;28;20041;-65
2024/02/21 05:24:46;;;;;;;34.05;7.85;;;9.00;99.90;;;;;;5051041;28;20044;-67
2024/02/21 05:27:11;;;;;;;30.58;8.07;;;9.00;99.90;;;;;;5058059;28;20093;-64
2024/02/21 05:29:37;;;;;;;33.42;8.40;;;9.00;99.90;;;;;;5064209;28;20094;-64
2024/02/21 05:32:03;;;;;;;30.45;8.65;;;9.00;99.90;;;;;;5052085;28;20041;-65
2024/02/21 05:34:28;;;;;;;28.90;7.53;;;9.00;99.90;;;;;;5046095;28;20506;-68
2024/02/21 05:36:54;;;;;;;31.95;8.48;;;9.00;99.90;;;;;;5049761;28;20070;-64
2024/02/21 05:39:22;;;;;;;32.53;7.63;;;9.00;99.90;;;;;;5051131;28;20037;-64
2024/02/21 05:41:48;;;;;;;27.13;7.18;;;9.00;99.90;;;;;;5056735;28;20044;-64
2024/02/21 05:44:13;;;;;;;33.38;8.50;;;9.00;99.90;;;;;;5051254;28;20032;-64
2024/02/21 05:46:39;;;;;;;29.52;8.65;;;9.00;99.90;;;;;;5051149;28;20071;-64
2024/02/21 05:49:05;;;;;;;28.58;8.60;;;9.00;99.90;;;;;;5050534;28;20033;-69
2024/02/21 05:51:34;;;;;;;27.08;9.20;;;9.10;99.90;;;;;;5050499;28;20099;-64
2024/02/21 05:54:00;;;;;;;42.75;9.80;;;9.00;99.90;;;;;;5050631;28;20041;-64
2024/02/21 05:56:26;;;;;;;27.10;8.95;;;9.10;99.90;;;;;;5050133;28;20035;-64
2024/02/21 05:58:52;;;;;;;27.70;10.07;;;9.10;99.90;;;;;;5049532;28;20416;-64
2024/02/21 06:01:18;;;;;;;23.77;9.00;;;9.00;99.90;;;;;;5050455;28;20140;-65
2024/02/21 06:03:44;;;;;;;33.72;10.68;;;9.00;99.90;;;;;;5046088;28;20118;-65
2024/02/21 06:06:09;;;;;;;24.58;9.25;;;9.00;99.90;;;;;;5046439;28;20033;-67
2024/02/21 06:08:35;;;;;;;29.15;9.77;;;9.00;99.90;;;;;;5050189;28;20400;-67
2024/02/21 06:11:00;;;;;;;34.90;10.65;;;9.00;99.90;;;;;;5043110;28;20041;-64
2024/02/21 06:13:27;;;;;;;33.92;10.45;;;9.00;99.90;;;;;;5051056;28;20087;-65
2024/02/21 06:15:53;;;;;;;35.85;11.05;;;9.00;99.90;;;;;;5049686;28;20532;-65
2024/02/21 06:18:19;;;;;;;25.10;11.13;;;9.00;99.90;;;;;;5049859;28;20582;-64
2024/02/21 06:20:48;;;;;;;40.40;11.00;;;9.00;99.90;;;;;;5050351;28;20039;-64
2024/02/21 06:23:16;;;;;;;30.75;11.00;;;9.00;99.90;;;;;;5049532;28;20067;-67
2024/02/21 06:25:42;;;;;;;42.45;11.82;;;9.00;99.90;;;;;;5051890;28;20043;-68
2024/02/21 06:28:08;;;;;;;32.97;11.63;;;9.00;99.90;;;;;;5048943;28;20041;-69
2024/02/21 06:30:34;;;;;;;35.08;11.60;;;9.00;99.90;;;;;;5049445;28;20072;-64
2024/02/21 06:32:59;;;;;;;27.30;12.23;;;9.00;99.90;;;;;;5046232;28;20126;-65
2024/02/21 06:35:25;;;;;;;30.33;12.60;;;9.00;99.90;;;;;;5050323;28;20039;-65
2024/02/21 06:37:54;;;;;;;30.17;11.80;;;9.00;99.90;;;;;;5049822;28;20068;-65
2024/02/21 06:40:22;;;;;;;30.63;11.90;;;9.00;99.90;;;;;;5045756;28;20827;-64
2024/02/21 06:42:47;;;;;;;31.25;13.27;;;9.00;99.90;;;;;;5041676;28;20055;-64
2024/02/21 06:45:13;;;;;;;32.80;12.30;;;9.00;99.90;;;;;;5049972;28;20492;-64
2024/02/21 06:47:39;;;;;;;30.52;12.38;;;9.00;99.90;;;;;;5046827;28;20041;-66
2024/02/21 06:50:05;;;;;;;33.75;12.80;;;9.00;99.90;;;;;;5048407;28;20136;-69
2024/02/21 06:52:30;;;;;;;31.30;13.43;;;9.00;99.90;;;;;;5047837;28;20037;-69
2024/02/21 06:54:56;;;;;;;33.40;13.68;;;9.00;99.90;;;;;;5051760;28;20141;-65
2024/02/21 06:57:22;;;;;;;33.55;14.27;;;8.90;99.90;;;;;;5046169;28;20045;-65
2024/02/21 06:59:48;;;;;;;28.73;13.18;;;9.00;99.90;;;;;;5046592;28;20029;-64
2024/02/21 07:02:14;;;;;;;29.48;13.10;;;9.00;99.90;;;;;;5043271;28;20094;-64
2024/02/21 07:04:39;;;;;;;32.63;12.90;;;9.00;99.90;;;;;;5046589;28;20033;-64
2024/02/21 07:07:05;;;;;;;32.03;13.38;;;9.00;99.90;;;;;;5048819;28;20037;-69
2024/02/21 07:09:31;;;;;;;29.90;13.90;;;9.00;99.90;;;;;;5046587;28;20041;-68
2024/02/21 07:12:00;;;;;;;29.52;13.20;;;8.90;99.90;;;;;;5053225;28;20041;-68
2024/02/21 07:14:26;;;;;;;30.95;13.25;;;9.00;99.90;;;;;;5045887;28;20044;-69
2024/02/21 07:16:51;;;;;;;27.05;13.45;;;8.90;99.90;;;;;;5050064;28;20523;-68
2024/02/21 07:19:17;;;;;;;31.13;13.30;;;9.00;99.90;;;;;;5047059;28;20036;-64
2024/02/21 07:21:42;;;;;;;30.52;14.02;;;8.90;99.90;;;;;;5042595;28;20045;-64
2024/02/21 07:24:08;;;;;;;34.55;13.77;;;8.90;99.90;;;;;;5047175;28;20071;-64
2024/02/21 07:26:34;;;;;;;33.28;13.13;;;8.90;99.90;;;;;;5046701;28;20083;-64
2024/02/21 07:29:00;;;;;;;28.65;13.05;;;8.90;99.90;;;;;;5046589;28;20497;-66
2024/02/21 07:31:25;;;;;;;31.27;13.27;;;8.90;99.90;;;;;;5046885;28;20401;-71
2024/02/21 07:33:51;;;;;;;31.88;13.93;;;8.90;99.90;;;;;;5046140;28;20128;-66
2024/02/21 07:36:30;;;;;;;32.13;13.98;;;8.90;99.90;;;;;;5046433;28;20044;-64
2024/02/21 07:38:56;;;;;;;30.95;13.32;;;8.90;99.90;;;;;;5037740;28;20053;-64
2024/02/21 07:41:21;;;;;;;26.05;13.68;;;8.90;99.90;;;;;;5042069;28;20332;-68
2024/02/21 07:43:48;;;;;;;29.45;14.52;;;8.90;99.90;;;;;;5044205;28;20096;-65
2024/02/21 07:46:14;;;;;;;28.60;14.07;;;8.90;99.90;;;;;;5033577;28;20037;-65
2024/02/21 07:48:39;;;;;;;28.95;13.68;;;8.90;99.90;;;;;;5046319;28;20480;-66
2024/02/21 07:51:05;;;;;;;29.25;14.35;;;9.00;99.90;;;;;;5047179;28;20041;-65
2024/02/21 07:53:30;;;;;;;27.38;14.57;;;8.90;99.90;;;;;;5046623;28;20044;-65
2024/02/21 07:55:56;;;;;;;26.77;14.93;;;8.90;99.90;;;;;;5047741;28;20041;-65
2024/02/21 07:58:22;;;;;;;29.42;15.38;;;8.90;99.90;;;;;;5046053;28;20132;-65
2024/02/21 08:00:48;;;;;;;29.48;15.77;;;8.90;99.90;;;;;;5045172;28;20052;-65
2024/02/21 08:03:15;;;;;;;32.38;16.27;;;8.90;99.90;;;;;;5047645;28;20037;-66
2024/02/21 08:05:41;;;;;;;32.17;17.20;;;8.90;99.90;;;;;;5057018;28;20056;-65
2024/02/21 08:08:08;;;;;;;30.27;17.40;;;8.90;99.90;;;;;;5036538;28;20041;-66
2024/02/21 08:10:33;;;;;;;30.08;17.30;;;8.80;99.90;;;;;;5050706;28;20131;-65
2024/02/21 08:12:59;;;;;;;33.80;17.65;;;8.80;99.90;;;;;;5044070;28;20528;-65
2024/02/21 08:15:29;;;;;;;38.30;17.65;;;8.80;99.90;;;;;;5046990;28;20033;-65
2024/02/21 08:17:58;;;;;;;36.33;16.70;;;8.80;99.90;;;;;;5050590;28;20048;-66
2024/02/21 08:20:24;;;;;;;35.53;17.75;;;8.80;99.90;;;;;;5045237;28;20447;-65
2024/02/21 08:22:50;;;;;;;36.60;17.58;;;8.80;99.90;;;;;;5050569;28;20389;-65
2024/02/21 08:25:16;;;;;;;35.80;17.38;;;8.80;99.90;;;;;;5050561;28;20036;-65
2024/02/21 08:27:41;;;;;;;30.90;17.88;;;8.80;99.90;;;;;;5047563;28;20884;-65
2024/02/21 08:30:07;;;;;;;35.85;17.77;;;8.80;99.90;;;;;;5053001;28;20048;-65
2024/02/21 08:32:35;;;;;;;37.50;18.95;;;8.90;99.90;;;;;;5052673;28;20106;-66
2024/02/21 08:35:01;;;;;;;27.52;17.10;;;8.90;99.90;;;;;;5043970;28;20084;-65
2024/02/21 08:37:30;;;;;;;32.85;17.70;;;8.90;99.90;;;;;;5050116;28;20977;-65
2024/02/21 08:39:55;;;;;;;33.38;17.85;;;8.90;99.90;;;;;;5045774;28;20598;-65
2024/02/21 08:42:21;;;;;;;32.80;17.63;;;8.90;99.90;;;;;;5049907;28;20116;-65
2024/02/21 08:44:46;;;;;;;34.42;19.25;;;8.90;99.90;;;;;;5049601;28;20061;-65
2024/02/21 08:47:12;;;;;;;35.55;18.60;;;9.00;99.90;;;;;;5050016;28;20049;-65
2024/02/21 08:49:38;;;;;;;32.58;19.20;;;9.00;99.90;;;;;;5043424;28;20091;-67
2024/02/21 08:52:05;;;;;;;36.80;19.08;;;9.00;99.90;;;;;;5042535;28;20114;-65
2024/02/21 08:54:32;;;;;;;36.53;18.75;;;9.00;99.90;;;;;;5057956;28;20040;-65
2024/02/21 08:56:58;;;;;;;35.60;20.30;;;9.00;99.90;;;;;;5044390;28;20132;-67
2024/02/21 08:59:24;;;;;;;38.40;19.50;;;9.00;99.90;;;;;;5047046;28;20119;-65
2024/02/21 09:01:52;;;;;;;36.47;20.40;;;9.00;99.90;;;;;;5034980;28;20060;-65
2024/02/21 09:04:17;;;;;;;38.03;19.58;;;9.00;99.90;;;;;;5041395;28;20033;-65
2024/02/21 09:06:44;;;;;;;35.97;20.42;;;9.10;99.90;;;;;;5049196;28;20029;-67
2024/02/21 09:09:10;;;;;;;35.35;18.88;;;9.00;99.90;;;;;;5045687;28;20099;-64
2024/02/21 09:11:36;;;;;;;36.75;21.05;;;9.10;99.90;;;;;;5040166;28;20037;-64
2024/02/21 09:14:03;;;;;;;36.25;19.42;;;9.10;99.90;;;;;;5042055;28;20102;-65
2024/02/21 09:16:33;;;;;;;35.63;20.10;;;9.10;99.90;;;;;;5044730;28;20040;-65
2024/02/21 09:18:59;;;;;;;33.67;19.48;;;9.10;99.90;;;;;;5046338;28;20772;-65
2024/02/21 09:21:24;;;;;;;35.15;19.13;;;9.20;99.90;;;;;;5055453;28;20080;-65
2024/02/21 09:23:50;;;;;;;37.20;20.40;;;9.20;99.90;;;;;;5043283;28;20065;-65
2024/02/21 09:26:16;;;;;;;36.85;19.65;;;9.20;99.90;;;;;;5044231;28;20095;-65
2024/02/21 09:28:44;;;;;;;36.15;19.38;;;9.20;99.90;;;;;;5039979;28;20065;-65
2024/02/21 09:31:09;;;;;;;38.33;19.40;;;9.20;99.90;;;;;;5046334;28;20127;-65
2024/02/21 09:33:35;;;;;;;30.70;19.05;;;9.20;99.90;;;;;;5048225;28;20048;-65
2024/02/21 09:36:01;;;;;;;38.40;19.38;;;9.30;99.90;;;;;;5050544;28;20040;-65
2024/02/21 09:38:27;;;;;;;34.30;18.70;;;9.30;99.90;;;;;;5043433;28;20036;-65
2024/02/21 09:41:15;;;;;;;34.17;18.15;;;9.30;99.90;;;;;;5040035;28;20480;-65
2024/02/21 09:43:41;;;;;;;31.17;17.98;;;9.30;99.90;;;;;;5047390;28;20037;-65
2024/02/21 09:46:11;;;;;;;27.80;17.10;;;9.30;99.90;;;;;;5048423;28;20037;-65
2024/02/21 09:49:13;;;;;;;29.73;16.85;;;9.30;99.90;;;;;;5042222;28;20450;-65
2024/02/21 09:51:41;;;;;;;36.53;17.83;;;9.30;99.90;;;;;;5051404;28;20036;-66
2024/02/21 09:54:07;;;;;;;35.30;18.08;;;9.30;99.90;;;;;;5065130;28;20044;-65
2024/02/21 09:56:33;;;;;;;27.67;15.82;;;9.30;99.90;;;;;;5047338;28;20079;-65
2024/02/21 09:59:03;;;;;;;25.48;15.65;;;9.30;99.90;;;;;;5048415;28;20048;-65
2024/02/21 10:01:28;;;;;;;29.65;15.55;;;9.30;99.90;;;;;;5047392;28;20083;-65
2024/02/21 10:03:54;;;;;;;29.33;14.90;;;9.30;99.90;;;;;;5047529;28;20060;-65
2024/02/21 10:06:19;;;;;;;26.25;14.98;;;9.40;99.90;;;;;;5043472;28;20033;-65
2024/02/21 10:08:52;;;;;;;32.35;14.18;;;9.30;99.90;;;;;;5047618;28;20172;-65
2024/02/21 10:11:25;;;;;;;27.75;13.65;;;9.40;99.90;;;;;;5050902;28;20032;-65
2024/02/21 10:13:51;;;;;;;24.90;13.50;;;9.40;99.90;;;;;;5042671;28;20041;-65
2024/02/21 10:16:16;;;;;;;28.58;13.63;;;9.30;99.90;;;;;;5053609;28;20051;-65
2024/02/21 10:18:42;;;;;;;26.67;13.15;;;9.30;99.90;;;;;;5044651;28;20063;-65
2024/02/21 10:21:08;;;;;;;28.75;13.48;;;9.30;99.90;;;;;;5047006;28;20068;-64
2024/02/21 10:23:44;;;;;;;30.23;13.02;;;9.30;99.90;;;;;;5047645;28;20037;-65
2024/02/21 10:26:10;;;;;;;25.17;12.20;;;9.40;99.90;;;;;;5050460;28;20036;-65
2024/02/21 10:28:41;;;;;;;23.13;12.73;;;9.40;99.90;;;;;;5039874;28;20488;-65
2024/02/21 10:31:07;;;;;;;22.25;12.05;;;9.40;99.90;;;;;;5051003;28;20060;-65
2024/02/21 10:33:33;;;;;;;23.50;12.85;;;9.50;99.90;;;;;;5046849;28;20132;-65
2024/02/21 10:36:10;;;;;;;22.55;12.20;;;9.50;99.90;;;;;;5042512;28;20107;-65
2024/02/21 10:38:39;;;;;;;26.63;12.10;;;9.50;99.90;;;;;;5045761;28;20043;-65
2024/02/21 10:41:05;;;;;;;24.75;12.25;;;9.60;99.90;;;;;;5043799;28;20073;-65
2024/02/21 10:43:40;;;;;;;27.98;10.95;;;9.60;99.90;;;;;;5042995;28;20109;-65
2024/02/21 10:46:09;;;;;;;23.67;11.45;;;9.60;99.90;;;;;;5045918;28;20044;-64
2024/02/21 10:48:45;;;;;;;22.45;11.63;;;9.60;99.90;;;;;;5047755;28;20041;-65
2024/02/21 10:51:19;;;;;;;22.75;10.93;;;9.60;99.90;;;;;;5046671;28;20033;-64
2024/02/21 10:54:02;;;;;;;22.35;10.77;;;9.60;99.90;;;;;;5047467;28;20040;-65
2024/02/21 10:56:36;;;;;;;22.27;10.45;;;9.70;99.90;;;;;;5045856;28;20052;-65
2024/02/21 10:59:04;;;;;;;22.25;10.55;;;9.60;99.90;;;;;;5043245;28;20041;-64
2024/02/21 11:01:35;;;;;;;19.73;11.02;;;9.60;99.90;;;;;;5044544;28;20048;-64
2024/02/21 11:04:06;;;;;;;17.00;10.35;;;9.70;99.90;;;;;;5038558;28;20033;-65
2024/02/21 11:06:33;;;;;;;19.50;10.48;;;9.60;99.90;;;;;;5050247;28;20047;-64
2024/02/21 11:09:10;;;;;;;18.48;9.45;;;9.60;99.90;;;;;;5037226;28;20037;-65
2024/02/21 11:11:40;;;;;;;21.25;10.88;;;9.60;99.90;;;;;;5039220;28;20028;-65
2024/02/21 11:14:10;;;;;;;19.10;10.25;;;9.70;99.90;;;;;;5037134;28;20049;-65
2024/02/21 11:16:42;;;;;;;18.48;10.70;;;9.70;99.90;;;;;;5043361;28;20033;-65
2024/02/21 11:19:25;;;;;;;20.88;10.48;;;9.70;99.90;;;;;;5044428;28;20056;-65
2024/02/21 11:21:52;;;;;;;19.42;9.95;;;9.70;99.90;;;;;;5038444;28;20079;-64
2024/02/21 11:24:28;;;;;;;18.83;10.02;;;9.70;99.90;;;;;;5046142;28;20036;-64
2024/02/21 11:26:54;;;;;;;18.88;10.27;;;9.70;99.90;;;;;;5041328;28;20037;-65
2024/02/21 11:29:27;;;;;;;19.80;10.48;;;9.70;99.90;;;;;;5044937;28;20485;-65
2024/02/21 11:31:53;;;;;;;17.70;10.63;;;9.80;99.90;;;;;;5045223;28;20025;-65
2024/02/21 11:34:19;;;;;;;16.70;9.57;;;9.70;99.90;;;;;;5044239;28;20048;-64
2024/02/21 11:36:52;;;;;;;20.45;10.35;;;9.80;99.90;;;;;;5045148;28;20037;-65
2024/02/21 11:39:20;;;;;;;20.92;9.20;;;9.70;99.90;;;;;;5040893;28;20048;-65
2024/02/21 11:41:46;;;;;;;19.65;10.35;;;9.70;99.90;;;;;;5041645;28;20044;-65
2024/02/21 11:44:12;;;;;;;16.90;9.25;;;9.80;99.90;;;;;;5046389;28;20037;-65
2024/02/21 11:46:38;;;;;;;20.10;9.15;;;9.70;99.90;;;;;;5037770;28;20029;-65
2024/02/21 11:49:04;;;;;;;17.35;9.43;;;9.70;99.90;;;;;;5039181;28;20499;-65
2024/02/21 11:51:30;;;;;;;18.30;9.68;;;9.70;99.90;;;;;;5041871;28;20556;-65
2024/02/21 11:53:55;;;;;;;16.83;9.70;;;9.70;99.90;;;;;;5045643;28;20112;-65
2024/02/21 11:56:22;;;;;;;17.30;9.13;;;9.80;99.90;;;;;;5042139;28;20076;-65
2024/02/21 11:58:49;;;;;;;16.80;9.38;;;9.80;99.90;;;;;;5047560;28;20044;-65
2024/02/21 12:01:14;;;;;;;15.63;8.93;;;9.80;99.90;;;;;;5044513;28;20063;-65
2024/02/21 12:03:41;;;;;;;15.30;7.93;;;9.70;99.90;;;;;;5051481;28;20427;-65
2024/02/21 12:06:07;;;;;;;13.30;8.52;;;9.80;99.90;;;;;;5040235;28;20448;-65
2024/02/21 12:08:43;;;;;;;15.52;8.90;;;9.70;99.90;;;;;;5038776;28;20095;-65
2024/02/21 12:11:22;;;;;;;16.05;8.15;;;9.70;99.90;;;;;;5049557;28;20045;-65
2024/02/21 12:14:05;;;;;;;18.75;8.60;;;9.70;99.90;;;;;;5048542;28;20119;-65
2024/02/21 12:16:34;;;;;;;17.02;8.52;;;9.80;99.90;;;;;;5048922;28;20124;-65
2024/02/21 12:19:00;;;;;;;14.15;8.40;;;9.70;99.90;;;;;;5045053;28;20182;-64
2024/02/21 12:21:32;;;;;;;13.10;7.53;;;9.70;99.90;;;;;;5044619;28;20569;-65
2024/02/21 12:23:58;;;;;;;14.88;8.05;;;9.70;99.90;;;;;;5046193;28;20615;-65
2024/02/21 12:26:25;;;;;;;15.68;8.20;;;9.80;99.90;;;;;;5048386;28;20040;-66
2024/02/21 12:28:51;;;;;;;13.00;7.75;;;9.80;99.90;;;;;;5045534;28;20077;-65
2024/02/21 12:31:17;;;;;;;11.32;7.13;;;9.80;99.90;;;;;;5047609;28;20110;-65
2024/02/21 12:33:43;;;;;;;15.38;7.30;;;9.70;99.90;;;;;;5048173;28;20040;-65
2024/02/21 12:36:09;;;;;;;12.75;7.10;;;9.70;99.90;;;;;;5049272;28;20167;-65
2024/02/21 12:38:36;;;;;;;13.95;6.72;;;9.70;99.90;;;;;;5040727;28;20516;-65
2024/02/21 12:41:01;;;;;;;12.52;7.05;;;9.70;99.90;;;;;;5048777;28;20043;-65